sensor_id;sensor_type;location;lat;lon;timestamp;pressure;altitude;pressure_sealevel;temperature;humidity
17764;BME280;22245;52.832;13.816;2023-10-13T00:01:35;101257.09;;;11.58;100.00
17764;BME280;22245;52.832;13.816;2023-10-13T00:04:58;101254.16;;;11.62;100.00
17764;BME280;22245;52.832;13.816;2023-10-13T00:08:20;101243.25;;;11.65;100.00
17764;BME280;22245;52.832;13.816;2023-10-13T00:11:44;101251.81;;;11.68;100.00
17764;BME280;22245;52.832;13.816;2023-10-13T00:15:08;101248.91;;;11.71;100.00
17764;BME280;22245;52.832;13.816;2023-10-13T00:18:33;101249.63;;;11.73;100.00
17764;BME280;22245;52.832;13.816;2023-10-13T00:21:58;101237.03;;;11.76;100.00
17764;BME280;22245;52.832;13.816;2023-10-13T00:25:29;101240.28;;;11.79;100.00
17764;BME280;22245;52.832;13.816;2023-10-13T00:28:52;101231.75;;;11.85;100.00
17764;BME280;22245;52.832;13.816;2023-10-13T00:32:31;101222.50;;;11.90;100.00
17764;BME280;22245;52.832;13.816;2023-10-13T00:35:57;101218.75;;;11.92;100.00
17764;BME280;22245;52.832;13.816;2023-10-13T00:39:21;101222.16;;;11.94;100.00
17764;BME280;22245;52.832;13.816;2023-10-13T00:42:44;101213.16;;;11.95;100.00
17764;BME280;22245;52.832;13.816;2023-10-13T00:46:11;101219.84;;;12.01;100.00
17764;BME280;22245;52.832;13.816;2023-10-13T00:49:35;101218.72;;;12.04;100.00
17764;BME280;22245;52.832;13.816;2023-10-13T00:53:01;101221.84;;;12.09;100.00
17764;BME280;22245;52.832;13.816;2023-10-13T00:56:23;101206.31;;;12.14;100.00
17764;BME280;22245;52.832;13.816;2023-10-13T00:59:47;101205.06;;;12.18;100.00
17764;BME280;22245;52.832;13.816;2023-10-13T01:03:11;101200.44;;;12.20;100.00
17764;BME280;22245;52.832;13.816;2023-10-13T01:06:36;101199.47;;;12.21;100.00
17764;BME280;22245;52.832;13.816;2023-10-13T01:09:58;101194.84;;;12.23;100.00
17764;BME280;22245;52.832;13.816;2023-10-13T01:13:19;101198.22;;;12.25;100.00
17764;BME280;22245;52.832;13.816;2023-10-13T01:16:43;101192.63;;;12.28;100.00
17764;BME280;22245;52.832;13.816;2023-10-13T01:20:05;101186.91;;;12.33;100.00
17764;BME280;22245;52.832;13.816;2023-10-13T01:23:29;101193.94;;;12.34;100.00
17764;BME280;22245;52.832;13.816;2023-10-13T01:26:58;101196.06;;;12.40;100.00
17764;BME280;22245;52.832;13.816;2023-10-13T01:30:28;101187.09;;;12.41;100.00
17764;BME280;22245;52.832;13.816;2023-10-13T01:33:48;101181.75;;;12.41;100.00
17764;BME280;22245;52.832;13.816;2023-10-13T01:37:14;101170.34;;;12.39;100.00
17764;BME280;22245;52.832;13.816;2023-10-13T01:40:38;101174.97;;;12.37;100.00
17764;BME280;22245;52.832;13.816;2023-10-13T01:43:59;101181.41;;;12.35;100.00
17764;BME280;22245;52.832;13.816;2023-10-13T01:47:21;101184.34;;;12.32;100.00
17764;BME280;22245;52.832;13.816;2023-10-13T01:50:45;101173.78;;;12.30;100.00
17764;BME280;22245;52.832;13.816;2023-10-13T01:54:13;101184.72;;;12.27;100.00
17764;BME280;22245;52.832;13.816;2023-10-13T01:57:39;101184.00;;;12.25;100.00
17764;BME280;22245;52.832;13.816;2023-10-13T02:01:01;101188.53;;;12.24;100.00
17764;BME280;22245;52.832;13.816;2023-10-13T02:04:25;101187.81;;;12.22;100.00
17764;BME280;22245;52.832;13.816;2023-10-13T02:07:46;101185.41;;;12.19;100.00
17764;BME280;22245;52.832;13.816;2023-10-13T02:11:08;101189.88;;;12.19;100.00
17764;BME280;22245;52.832;13.816;2023-10-13T02:14:32;101191.84;;;12.16;100.00
17764;BME280;22245;52.832;13.816;2023-10-13T02:17:56;101179.47;;;12.15;100.00
17764;BME280;22245;52.832;13.816;2023-10-13T02:21:17;101169.91;;;12.13;100.00
17764;BME280;22245;52.832;13.816;2023-10-13T02:24:38;101169.91;;;12.13;100.00
17764;BME280;22245;52.832;13.816;2023-10-13T02:28:00;101166.50;;;12.11;100.00
17764;BME280;22245;52.832;13.816;2023-10-13T02:31:23;101168.34;;;12.10;100.00
17764;BME280;22245;52.832;13.816;2023-10-13T02:34:45;101176.09;;;12.13;100.00
17764;BME280;22245;52.832;13.816;2023-10-13T02:38:07;101170.16;;;12.10;100.00
17764;BME280;22245;52.832;13.816;2023-10-13T02:41:31;101164.81;;;12.10;100.00
17764;BME280;22245;52.832;13.816;2023-10-13T02:44:56;101160.59;;;12.07;100.00
17764;BME280;22245;52.832;13.816;2023-10-13T02:48:19;101154.53;;;12.05;100.00
17764;BME280;22245;52.832;13.816;2023-10-13T02:51:41;101158.19;;;12.04;100.00
17764;BME280;22245;52.832;13.816;2023-10-13T02:55:04;101147.25;;;12.07;100.00
17764;BME280;22245;52.832;13.816;2023-10-13T02:58:29;101147.25;;;12.07;100.00
17764;BME280;22245;52.832;13.816;2023-10-13T03:01:58;101140.06;;;12.08;100.00
17764;BME280;22245;52.832;13.816;2023-10-13T03:05:21;101132.66;;;12.11;100.00
17764;BME280;22245;52.832;13.816;2023-10-13T03:08:43;101119.75;;;12.16;100.00
17764;BME280;22245;52.832;13.816;2023-10-13T03:12:04;101110.91;;;12.16;100.00
17764;BME280;22245;52.832;13.816;2023-10-13T03:15:31;101096.56;;;12.17;100.00
17764;BME280;22245;52.832;13.816;2023-10-13T03:18:55;101099.09;;;12.19;100.00
17764;BME280;22245;52.832;13.816;2023-10-13T03:22:18;101094.34;;;12.22;100.00
17764;BME280;22245;52.832;13.816;2023-10-13T03:25:51;101094.09;;;12.25;100.00
17764;BME280;22245;52.832;13.816;2023-10-13T03:29:15;101098.28;;;12.28;100.00
17764;BME280;22245;52.832;13.816;2023-10-13T03:32:42;101091.72;;;12.32;100.00
17764;BME280;22245;52.832;13.816;2023-10-13T03:36:08;101075.72;;;12.32;100.00
17764;BME280;22245;52.832;13.816;2023-10-13T03:39:31;101074.72;;;12.33;100.00
17764;BME280;22245;52.832;13.816;2023-10-13T03:42:55;101071.06;;;12.34;100.00
17764;BME280;22245;52.832;13.816;2023-10-13T03:46:24;101069.22;;;12.35;100.00
17764;BME280;22245;52.832;13.816;2023-10-13T03:49:46;101071.63;;;12.38;100.00
17764;BME280;22245;52.832;13.816;2023-10-13T03:53:11;101063.50;;;12.39;100.00
17764;BME280;22245;52.832;13.816;2023-10-13T03:56:35;101059.84;;;12.40;100.00
17764;BME280;22245;52.832;13.816;2023-10-13T04:00:01;101058.44;;;12.46;100.00
17764;BME280;22245;52.832;13.816;2023-10-13T04:03:31;101045.94;;;12.47;100.00
17764;BME280;22245;52.832;13.816;2023-10-13T04:06:56;101047.47;;;12.49;100.00
17764;BME280;22245;52.832;13.816;2023-10-13T04:10:33;101044.69;;;12.51;100.00
17764;BME280;22245;52.832;13.816;2023-10-13T04:14:13;101045.41;;;12.53;100.00
17764;BME280;22245;52.832;13.816;2023-10-13T04:18:04;101038.25;;;12.53;100.00
17764;BME280;22245;52.832;13.816;2023-10-13T04:21:38;101034.59;;;12.54;100.00
17764;BME280;22245;52.832;13.816;2023-10-13T04:25:17;101027.28;;;12.56;100.00
17764;BME280;22245;52.832;13.816;2023-10-13T04:28:59;101013.63;;;12.59;100.00
17764;BME280;22245;52.832;13.816;2023-10-13T04:32:30;101016.88;;;12.63;100.00
17764;BME280;22245;52.832;13.816;2023-10-13T04:35:53;101007.03;;;12.64;100.00
17764;BME280;22245;52.832;13.816;2023-10-13T04:39:19;100998.84;;;12.65;100.00
17764;BME280;22245;52.832;13.816;2023-10-13T04:42:55;100997.88;;;12.66;100.00
17764;BME280;22245;52.832;13.816;2023-10-13T04:46:18;100989.63;;;12.69;100.00
17764;BME280;22245;52.832;13.816;2023-10-13T04:49:57;100980.47;;;12.72;100.00
17764;BME280;22245;52.832;13.816;2023-10-13T04:53:20;100983.72;;;12.76;100.00
17764;BME280;22245;52.832;13.816;2023-10-13T04:56:53;100977.22;;;12.78;100.00
17764;BME280;22245;52.832;13.816;2023-10-13T05:00:40;100978.63;;;12.82;100.00
17764;BME280;22245;52.832;13.816;2023-10-13T05:04:37;100987.06;;;12.87;100.00
17764;BME280;22245;52.832;13.816;2023-10-13T05:08:23;100985.66;;;12.93;100.00
17764;BME280;22245;52.832;13.816;2023-10-13T05:12:04;100979.91;;;12.98;100.00
17764;BME280;22245;52.832;13.816;2023-10-13T05:15:44;100985.81;;;13.01;100.00
17764;BME280;22245;52.832;13.816;2023-10-13T05:19:23;100971.16;;;13.06;100.00
17764;BME280;22245;52.832;13.816;2023-10-13T05:23:02;100982.00;;;13.14;100.00
17764;BME280;22245;52.832;13.816;2023-10-13T05:26:42;100970.03;;;13.18;100.00
17764;BME280;22245;52.832;13.816;2023-10-13T05:30:21;100977.91;;;13.20;100.00
17764;BME280;22245;52.832;13.816;2023-10-13T05:34:00;100963.00;;;13.27;100.00
17764;BME280;22245;52.832;13.816;2023-10-13T05:37:39;100966.91;;;13.32;100.00
17764;BME280;22245;52.832;13.816;2023-10-13T05:41:18;100966.78;;;13.34;100.00
17764;BME280;22245;52.832;13.816;2023-10-13T05:44:58;100973.53;;;13.38;100.00
17764;BME280;22245;52.832;13.816;2023-10-13T05:48:34;100974.06;;;13.42;100.00
17764;BME280;22245;52.832;13.816;2023-10-13T05:52:22;100965.81;;;13.45;100.00
17764;BME280;22245;52.832;13.816;2023-10-13T05:56:04;100964.81;;;13.46;100.00
17764;BME280;22245;52.832;13.816;2023-10-13T05:59:43;100956.63;;;13.48;100.00
17764;BME280;22245;52.832;13.816;2023-10-13T06:03:25;100966.50;;;13.47;100.00
17764;BME280;22245;52.832;13.816;2023-10-13T06:07:04;100960.00;;;13.50;100.00
17764;BME280;22245;52.832;13.816;2023-10-13T06:10:43;100954.66;;;13.50;100.00
17764;BME280;22245;52.832;13.816;2023-10-13T06:14:22;100954.53;;;13.51;100.00
17764;BME280;22245;52.832;13.816;2023-10-13T06:18:01;100951.69;;;13.53;100.00
17764;BME280;22245;52.832;13.816;2023-10-13T06:21:42;100955.06;;;13.55;100.00
17764;BME280;22245;52.832;13.816;2023-10-13T06:25:21;100952.94;;;13.58;100.00
17764;BME280;22245;52.832;13.816;2023-10-13T06:29:03;100927.44;;;13.64;100.00
17764;BME280;22245;52.832;13.816;2023-10-13T06:32:29;100928.53;;;13.71;100.00
17764;BME280;22245;52.832;13.816;2023-10-13T06:35:51;100926.97;;;13.79;100.00
17764;BME280;22245;52.832;13.816;2023-10-13T06:39:17;100924.53;;;13.85;100.00
17764;BME280;22245;52.832;13.816;2023-10-13T06:42:56;100927.31;;;13.94;100.00
17764;BME280;22245;52.832;13.816;2023-10-13T06:46:33;100926.28;;;14.04;100.00
17764;BME280;22245;52.832;13.816;2023-10-13T06:49:55;100934.78;;;14.18;100.00
17764;BME280;22245;52.832;13.816;2023-10-13T06:53:18;100924.72;;;14.30;100.00
17764;BME280;22245;52.832;13.816;2023-10-13T06:56:41;100927.16;;;14.41;100.00
17764;BME280;22245;52.832;13.816;2023-10-13T07:00:03;100922.75;;;14.50;100.00
17764;BME280;22245;52.832;13.816;2023-10-13T07:03:28;100917.75;;;14.55;100.00
17764;BME280;22245;52.832;13.816;2023-10-13T07:06:51;100920.13;;;14.58;100.00
17764;BME280;22245;52.832;13.816;2023-10-13T07:10:15;100907.97;;;14.64;100.00
17764;BME280;22245;52.832;13.816;2023-10-13T07:13:38;100904.69;;;14.70;100.00
17764;BME280;22245;52.832;13.816;2023-10-13T07:17:05;100904.06;;;14.76;100.00
17764;BME280;22245;52.832;13.816;2023-10-13T07:20:28;100905.81;;;14.86;100.00
17764;BME280;22245;52.832;13.816;2023-10-13T07:23:55;100898.00;;;14.93;100.00
17764;BME280;22245;52.832;13.816;2023-10-13T07:27:28;100893.69;;;15.00;100.00
17764;BME280;22245;52.832;13.816;2023-10-13T07:30:51;100895.75;;;15.06;100.00
17764;BME280;22245;52.832;13.816;2023-10-13T07:34:27;100886.78;;;15.15;100.00
17764;BME280;22245;52.832;13.816;2023-10-13T07:37:52;100883.28;;;15.23;100.00
17764;BME280;22245;52.832;13.816;2023-10-13T07:41:15;100878.97;;;15.30;100.00
17764;BME280;22245;52.832;13.816;2023-10-13T07:44:37;100880.16;;;15.36;100.00
17764;BME280;22245;52.832;13.816;2023-10-13T07:48:09;100884.91;;;15.42;100.00
17764;BME280;22245;52.832;13.816;2023-10-13T07:51:41;100869.69;;;15.51;100.00
17764;BME280;22245;52.832;13.816;2023-10-13T07:55:05;100878.28;;;15.55;100.00
17764;BME280;22245;52.832;13.816;2023-10-13T07:58:35;100867.88;;;15.60;100.00
17764;BME280;22245;52.832;13.816;2023-10-13T08:02:07;100868.75;;;15.69;100.00
17764;BME280;22245;52.832;13.816;2023-10-13T08:05:35;100863.03;;;15.72;100.00
17764;BME280;22245;52.832;13.816;2023-10-13T08:09:16;100865.09;;;15.78;100.00
17764;BME280;22245;52.832;13.816;2023-10-13T08:12:50;100864.59;;;15.83;100.00
17764;BME280;22245;52.832;13.816;2023-10-13T08:16:15;100864.69;;;15.91;100.00
17764;BME280;22245;52.832;13.816;2023-10-13T08:19:41;100857.47;;;16.00;100.00
17764;BME280;22245;52.832;13.816;2023-10-13T08:23:06;100849.59;;;16.06;100.00
17764;BME280;22245;52.832;13.816;2023-10-13T08:26:55;100850.13;;;16.18;100.00
17764;BME280;22245;52.832;13.816;2023-10-13T08:30:35;100844.09;;;16.25;100.00
17764;BME280;22245;52.832;13.816;2023-10-13T08:34:12;100832.34;;;16.34;100.00
17764;BME280;22245;52.832;13.816;2023-10-13T08:37:36;100836.22;;;16.40;100.00
17764;BME280;22245;52.832;13.816;2023-10-13T08:41:17;100840.56;;;16.49;100.00
17764;BME280;22245;52.832;13.816;2023-10-13T08:44:51;100830.00;;;16.56;100.00
17764;BME280;22245;52.832;13.816;2023-10-13T08:48:13;100830.81;;;16.64;100.00
17764;BME280;22245;52.832;13.816;2023-10-13T08:51:36;100821.72;;;16.66;100.00
17764;BME280;22245;52.832;13.816;2023-10-13T08:55:05;100823.25;;;16.68;100.00
17764;BME280;22245;52.832;13.816;2023-10-13T08:58:56;100808.47;;;16.72;100.00
17764;BME280;22245;52.832;13.816;2023-10-13T09:02:26;100808.78;;;16.77;100.00
17764;BME280;22245;52.832;13.816;2023-10-13T09:06:02;100809.63;;;16.78;100.00
17764;BME280;22245;52.832;13.816;2023-10-13T09:09:27;100794.84;;;16.82;100.00
17764;BME280;22245;52.832;13.816;2023-10-13T09:12:55;100795.16;;;16.87;100.00
17764;BME280;22245;52.832;13.816;2023-10-13T09:16:23;100800.19;;;16.90;100.00
17764;BME280;22245;52.832;13.816;2023-10-13T09:20:10;100795.13;;;16.96;100.00
17764;BME280;22245;52.832;13.816;2023-10-13T09:23:45;100785.56;;;17.01;100.00
17764;BME280;22245;52.832;13.816;2023-10-13T09:27:09;100776.16;;;17.05;100.00
17764;BME280;22245;52.832;13.816;2023-10-13T09:30:33;100779.50;;;17.07;100.00
17764;BME280;22245;52.832;13.816;2023-10-13T09:33:57;100771.06;;;17.11;100.00
17764;BME280;22245;52.832;13.816;2023-10-13T09:37:18;100769.25;;;17.11;100.00
17764;BME280;22245;52.832;13.816;2023-10-13T09:40:42;100771.22;;;17.17;100.00
17764;BME280;22245;52.832;13.816;2023-10-13T09:44:10;100766.16;;;17.23;100.00
17764;BME280;22245;52.832;13.816;2023-10-13T09:47:32;100757.38;;;17.29;100.00
17764;BME280;22245;52.832;13.816;2023-10-13T09:51:03;100743.41;;;17.33;100.00
17764;BME280;22245;52.832;13.816;2023-10-13T09:54:31;100734.97;;;17.36;100.00
17764;BME280;22245;52.832;13.816;2023-10-13T09:58:07;100727.03;;;17.43;99.99
17764;BME280;22245;52.832;13.816;2023-10-13T10:01:33;100714.25;;;17.45;100.00
17764;BME280;22245;52.832;13.816;2023-10-13T10:04:58;100715.56;;;17.49;100.00
17764;BME280;22245;52.832;13.816;2023-10-13T10:08:34;100706.28;;;17.52;99.97
17764;BME280;22245;52.832;13.816;2023-10-13T10:12:21;100703.78;;;17.50;100.00
17764;BME280;22245;52.832;13.816;2023-10-13T10:15:50;100693.31;;;17.56;100.00
17764;BME280;22245;52.832;13.816;2023-10-13T10:19:12;100694.63;;;17.60;100.00
17764;BME280;22245;52.832;13.816;2023-10-13T10:22:34;100692.75;;;17.60;100.00
17764;BME280;22245;52.832;13.816;2023-10-13T10:26:09;100677.44;;;17.61;99.89
17764;BME280;22245;52.832;13.816;2023-10-13T10:29:32;100678.75;;;17.65;100.00
17764;BME280;22245;52.832;13.816;2023-10-13T10:32:54;100683.13;;;17.66;99.90
17764;BME280;22245;52.832;13.816;2023-10-13T10:36:28;100667.47;;;17.70;99.46
17764;BME280;22245;52.832;13.816;2023-10-13T10:39:50;100657.50;;;17.70;98.90
17764;BME280;22245;52.832;13.816;2023-10-13T10:43:18;100653.63;;;17.73;98.14
17764;BME280;22245;52.832;13.816;2023-10-13T10:46:52;100654.28;;;17.75;98.79
17764;BME280;22245;52.832;13.816;2023-10-13T10:50:25;100659.78;;;17.82;98.10
17764;BME280;22245;52.832;13.816;2023-10-13T10:53:55;100657.09;;;17.82;99.24
17764;BME280;22245;52.832;13.816;2023-10-13T10:57:17;100652.19;;;17.85;99.07
17764;BME280;22245;52.832;13.816;2023-10-13T11:00:40;100667.69;;;17.83;99.02
17764;BME280;22245;52.832;13.816;2023-10-13T11:04:10;100660.44;;;17.84;99.37
17764;BME280;22245;52.832;13.816;2023-10-13T11:07:45;100624.78;;;17.82;99.97
17764;BME280;22245;52.832;13.816;2023-10-13T11:11:09;100623.09;;;17.81;100.00
17764;BME280;22245;52.832;13.816;2023-10-13T11:14:38;100616.38;;;17.76;100.00
17764;BME280;22245;52.832;13.816;2023-10-13T11:18:00;100608.66;;;17.73;100.00
17764;BME280;22245;52.832;13.816;2023-10-13T11:21:29;100613.88;;;17.75;100.00
17764;BME280;22245;52.832;13.816;2023-10-13T11:24:50;100609.69;;;17.72;100.00
17764;BME280;22245;52.832;13.816;2023-10-13T11:28:15;100605.97;;;17.73;100.00
17764;BME280;22245;52.832;13.816;2023-10-13T11:31:40;100593.53;;;17.72;100.00
17764;BME280;22245;52.832;13.816;2023-10-13T11:35:05;100578.66;;;17.76;100.00
17764;BME280;22245;52.832;13.816;2023-10-13T11:38:40;100574.78;;;17.79;100.00
17764;BME280;22245;52.832;13.816;2023-10-13T11:42:10;100579.16;;;17.80;100.00
17764;BME280;22245;52.832;13.816;2023-10-13T11:45:31;100559.94;;;17.83;100.00
17764;BME280;22245;52.832;13.816;2023-10-13T11:48:56;100564.78;;;17.88;100.00
17764;BME280;22245;52.832;13.816;2023-10-13T11:52:26;100544.97;;;17.96;100.00
17764;BME280;22245;52.832;13.816;2023-10-13T11:55:50;100546.13;;;18.01;100.00
17764;BME280;22245;52.832;13.816;2023-10-13T11:59:12;100535.84;;;18.05;100.00
17764;BME280;22245;52.832;13.816;2023-10-13T12:02:38;100529.06;;;18.09;100.00
17764;BME280;22245;52.832;13.816;2023-10-13T12:06:17;100545.00;;;18.11;100.00
17764;BME280;22245;52.832;13.816;2023-10-13T12:09:45;100534.72;;;18.14;100.00
17764;BME280;22245;52.832;13.816;2023-10-13T12:13:26;100539.91;;;18.16;100.00
17764;BME280;22245;52.832;13.816;2023-10-13T12:16:49;100527.94;;;18.18;100.00
17764;BME280;22245;52.832;13.816;2023-10-13T12:20:11;100516.75;;;18.21;100.00
17764;BME280;22245;52.832;13.816;2023-10-13T12:23:38;100514.81;;;18.30;100.00
17764;BME280;22245;52.832;13.816;2023-10-13T12:27:01;100507.38;;;18.32;100.00
17764;BME280;22245;52.832;13.816;2023-10-13T12:30:22;100506.53;;;18.32;100.00
17764;BME280;22245;52.832;13.816;2023-10-13T12:33:56;100506.06;;;18.28;100.00
17764;BME280;22245;52.832;13.816;2023-10-13T12:37:28;100489.91;;;18.28;100.00
17764;BME280;22245;52.832;13.816;2023-10-13T12:41:11;100484.13;;;18.31;100.00
17764;BME280;22245;52.832;13.816;2023-10-13T12:44:56;100492.31;;;18.38;100.00
17764;BME280;22245;52.832;13.816;2023-10-13T12:48:37;100487.34;;;18.42;100.00
17764;BME280;22245;52.832;13.816;2023-10-13T12:52:24;100480.94;;;18.43;100.00
17764;BME280;22245;52.832;13.816;2023-10-13T12:55:53;100472.09;;;18.49;100.00
17764;BME280;22245;52.832;13.816;2023-10-13T12:59:15;100467.97;;;18.53;100.00
17764;BME280;22245;52.832;13.816;2023-10-13T13:02:38;100459.06;;;18.52;100.00
17764;BME280;22245;52.832;13.816;2023-10-13T13:06:02;100445.22;;;18.56;100.00
17764;BME280;22245;52.832;13.816;2023-10-13T13:09:27;100453.38;;;18.62;100.00
17764;BME280;22245;52.832;13.816;2023-10-13T13:12:48;100432.06;;;18.68;100.00
17764;BME280;22245;52.832;13.816;2023-10-13T13:16:10;100430.25;;;18.75;100.00
17764;BME280;22245;52.832;13.816;2023-10-13T13:19:33;100427.41;;;18.83;100.00
17764;BME280;22245;52.832;13.816;2023-10-13T13:22:57;100414.78;;;18.84;100.00
17764;BME280;22245;52.832;13.816;2023-10-13T13:26:23;100402.56;;;18.88;99.97
17764;BME280;22245;52.832;13.816;2023-10-13T13:29:44;100391.47;;;18.98;99.77
17764;BME280;22245;52.832;13.816;2023-10-13T13:33:06;100396.09;;;19.04;99.47
17764;BME280;22245;52.832;13.816;2023-10-13T13:36:33;100389.50;;;19.13;98.77
17764;BME280;22245;52.832;13.816;2023-10-13T13:39:54;100384.34;;;19.18;97.91
17764;BME280;22245;52.832;13.816;2023-10-13T13:43:15;100384.19;;;19.27;97.34
17764;BME280;22245;52.832;13.816;2023-10-13T13:46:52;100369.47;;;19.29;96.73
17764;BME280;22245;52.832;13.816;2023-10-13T13:50:16;100369.25;;;19.31;96.47
17764;BME280;22245;52.832;13.816;2023-10-13T13:53:45;100364.75;;;19.38;96.16
17764;BME280;22245;52.832;13.816;2023-10-13T13:57:09;100361.03;;;19.46;95.09
17764;BME280;22245;52.832;13.816;2023-10-13T14:00:32;100351.72;;;19.48;95.56
17764;BME280;22245;52.832;13.816;2023-10-13T14:03:58;100360.91;;;19.54;94.40
17764;BME280;22245;52.832;13.816;2023-10-13T14:07:23;100356.13;;;19.56;94.13
17764;BME280;22245;52.832;13.816;2023-10-13T14:10:46;100345.75;;;19.60;94.06
17764;BME280;22245;52.832;13.816;2023-10-13T14:14:24;100348.03;;;19.63;93.28
17764;BME280;22245;52.832;13.816;2023-10-13T14:17:54;100338.50;;;19.67;92.83
17764;BME280;22245;52.832;13.816;2023-10-13T14:21:15;100333.72;;;19.69;92.49
17764;BME280;22245;52.832;13.816;2023-10-13T14:24:37;100343.94;;;19.74;92.78
17764;BME280;22245;52.832;13.816;2023-10-13T14:28:06;100328.78;;;19.79;92.38
17764;BME280;22245;52.832;13.816;2023-10-13T14:31:27;100324.84;;;19.75;91.06
17764;BME280;22245;52.832;13.816;2023-10-13T14:34:49;100318.41;;;19.76;91.48
17764;BME280;22245;52.832;13.816;2023-10-13T14:38:15;100299.88;;;19.73;91.27
17764;BME280;22245;52.832;13.816;2023-10-13T14:41:36;100302.19;;;19.76;91.02
17764;BME280;22245;52.832;13.816;2023-10-13T14:44:58;100305.50;;;19.78;90.78
17764;BME280;22245;52.832;13.816;2023-10-13T14:48:20;100294.72;;;19.78;90.59
17764;BME280;22245;52.832;13.816;2023-10-13T14:51:44;100296.38;;;19.79;90.09
17764;BME280;22245;52.832;13.816;2023-10-13T14:55:08;100284.13;;;19.84;90.12
17764;BME280;22245;52.832;13.816;2023-10-13T14:58:38;100282.22;;;19.84;88.96
17764;BME280;22245;52.832;13.816;2023-10-13T15:02:04;100276.63;;;19.86;89.64
17764;BME280;22245;52.832;13.816;2023-10-13T15:05:26;100270.66;;;19.90;88.60
17764;BME280;22245;52.832;13.816;2023-10-13T15:08:51;100276.47;;;19.94;88.11
17764;BME280;22245;52.832;13.816;2023-10-13T15:12:14;100282.09;;;19.99;87.64
17764;BME280;22245;52.832;13.816;2023-10-13T15:15:42;100273.97;;;19.99;87.26
17764;BME280;22245;52.832;13.816;2023-10-13T15:19:05;100281.06;;;20.00;87.06
17764;BME280;22245;52.832;13.816;2023-10-13T15:22:26;100262.97;;;20.01;86.76
17764;BME280;22245;52.832;13.816;2023-10-13T15:25:48;100268.16;;;20.02;86.78
17764;BME280;22245;52.832;13.816;2023-10-13T15:29:10;100260.28;;;20.01;86.28
17764;BME280;22245;52.832;13.816;2023-10-13T15:32:32;100259.25;;;20.02;85.77
17764;BME280;22245;52.832;13.816;2023-10-13T15:36:05;100261.50;;;19.98;85.33
17764;BME280;22245;52.832;13.816;2023-10-13T15:39:27;100251.75;;;19.97;85.73
17764;BME280;22245;52.832;13.816;2023-10-13T15:42:51;100249.66;;;19.99;85.88
17764;BME280;22245;52.832;13.816;2023-10-13T15:46:16;100226.59;;;20.03;85.58
17764;BME280;22245;52.832;13.816;2023-10-13T15:49:57;100222.84;;;20.04;85.07
17764;BME280;22245;52.832;13.816;2023-10-13T15:53:25;100223.25;;;20.01;84.67
17764;BME280;22245;52.832;13.816;2023-10-13T15:56:48;100214.94;;;20.03;84.47
17764;BME280;22245;52.832;13.816;2023-10-13T16:00:12;100215.56;;;20.05;84.29
17764;BME280;22245;52.832;13.816;2023-10-13T16:03:46;100207.44;;;19.98;83.78
17764;BME280;22245;52.832;13.816;2023-10-13T16:07:10;100206.63;;;19.98;83.70
17764;BME280;22245;52.832;13.816;2023-10-13T16:10:34;100205.38;;;20.00;84.02
17764;BME280;22245;52.832;13.816;2023-10-13T16:13:55;100194.56;;;20.00;83.34
17764;BME280;22245;52.832;13.816;2023-10-13T16:17:16;100192.91;;;19.99;83.04
17764;BME280;22245;52.832;13.816;2023-10-13T16:20:41;100185.84;;;19.98;83.11
17764;BME280;22245;52.832;13.816;2023-10-13T16:24:03;100189.56;;;19.97;83.07
17764;BME280;22245;52.832;13.816;2023-10-13T16:27:26;100172.53;;;19.97;82.19
17764;BME280;22245;52.832;13.816;2023-10-13T16:30:47;100178.75;;;19.97;82.28
17764;BME280;22245;52.832;13.816;2023-10-13T16:34:09;100175.88;;;19.99;81.79
17764;BME280;22245;52.832;13.816;2023-10-13T16:37:30;100180.44;;;19.98;81.69
17764;BME280;22245;52.832;13.816;2023-10-13T16:40:52;100175.03;;;19.98;81.35
17764;BME280;22245;52.832;13.816;2023-10-13T16:44:15;100178.75;;;19.97;81.03
17764;BME280;22245;52.832;13.816;2023-10-13T16:47:37;100172.31;;;19.98;80.71
17764;BME280;22245;52.832;13.816;2023-10-13T16:51:03;100171.50;;;19.98;80.35
17764;BME280;22245;52.832;13.816;2023-10-13T16:54:25;100163.59;;;19.96;79.81
17764;BME280;22245;52.832;13.816;2023-10-13T16:57:47;100173.34;;;19.97;79.50
17764;BME280;22245;52.832;13.816;2023-10-13T17:01:13;100178.34;;;20.00;79.18
17764;BME280;22245;52.832;13.816;2023-10-13T17:04:34;100181.91;;;20.01;78.72
17764;BME280;22245;52.832;13.816;2023-10-13T17:07:56;100186.69;;;19.99;77.98
17764;BME280;22245;52.832;13.816;2023-10-13T17:11:20;100177.09;;;19.96;78.56
17764;BME280;22245;52.832;13.816;2023-10-13T17:14:44;100158.19;;;19.96;78.49
17764;BME280;22245;52.832;13.816;2023-10-13T17:18:07;100170.66;;;19.97;77.03
17764;BME280;22245;52.832;13.816;2023-10-13T17:21:29;100165.06;;;19.99;77.06
17764;BME280;22245;52.832;13.816;2023-10-13T17:24:51;100170.03;;;20.02;76.62
17764;BME280;22245;52.832;13.816;2023-10-13T17:28:14;100164.63;;;20.02;76.78
17764;BME280;22245;52.832;13.816;2023-10-13T17:31:36;100171.91;;;20.01;76.24
17764;BME280;22245;52.832;13.816;2023-10-13T17:34:59;100172.94;;;20.00;75.69
17764;BME280;22245;52.832;13.816;2023-10-13T17:38:22;100159.03;;;19.97;75.88
17764;BME280;22245;52.832;13.816;2023-10-13T17:41:44;100167.34;;;19.95;76.21